sensor_id;sensor_type;location;lat;lon;timestamp;P1;durP1;ratioP1;P2;durP2;ratioP2
58621;SDS011;44389;51.578;5.456;2022-11-20T00:01:12;53.05;;;32.33;;
58621;SDS011;44389;51.578;5.456;2022-11-20T00:03:42;50.63;;;31.83;;
58621;SDS011;44389;51.578;5.456;2022-11-20T00:06:09;56.72;;;34.72;;
58621;SDS011;44389;51.578;5.456;2022-11-20T00:08:39;56.42;;;34.65;;
58621;SDS011;44389;51.578;5.456;2022-11-20T00:11:08;65.75;;;43.13;;
58621;SDS011;44389;51.578;5.456;2022-11-20T00:13:38;63.38;;;42.60;;
58621;SDS011;44389;51.578;5.456;2022-11-20T00:16:05;51.60;;;34.38;;
58621;SDS011;44389;51.578;5.456;2022-11-20T00:21:01;63.58;;;39.95;;
58621;SDS011;44389;51.578;5.456;2022-11-20T00:23:35;57.58;;;36.45;;
58621;SDS011;44389;51.578;5.456;2022-11-20T00:26:04;61.03;;;37.90;;
58621;SDS011;44389;51.578;5.456;2022-11-20T00:28:31;62.92;;;38.80;;
58621;SDS011;44389;51.578;5.456;2022-11-20T00:31:00;60.50;;;39.10;;
58621;SDS011;44389;51.578;5.456;2022-11-20T00:33:30;66.18;;;41.72;;
58621;SDS011;44389;51.578;5.456;2022-11-20T00:35:59;62.55;;;40.25;;
58621;SDS011;44389;51.578;5.456;2022-11-20T00:38:31;60.17;;;36.92;;
58621;SDS011;44389;51.578;5.456;2022-11-20T00:40:58;68.25;;;38.90;;
58621;SDS011;44389;51.578;5.456;2022-11-20T00:43:24;55.97;;;36.67;;
58621;SDS011;44389;51.578;5.456;2022-11-20T00:45:55;59.22;;;35.83;;
58621;SDS011;44389;51.578;5.456;2022-11-20T00:48:24;57.15;;;36.75;;
58621;SDS011;44389;51.578;5.456;2022-11-20T00:50:50;34.90;;;13.63;;
58621;SDS011;44389;51.578;5.456;2022-11-20T00:53:15;38.38;;;14.30;;
58621;SDS011;44389;51.578;5.456;2022-11-20T00:55:40;43.63;;;14.60;;
58621;SDS011;44389;51.578;5.456;2022-11-20T00:58:06;60.92;;;37.45;;
58621;SDS011;44389;51.578;5.456;2022-11-20T01:00:31;62.88;;;41.55;;
58621;SDS011;44389;51.578;5.456;2022-11-20T01:02:56;66.65;;;42.42;;
58621;SDS011;44389;51.578;5.456;2022-11-20T01:05:22;62.80;;;40.08;;
58621;SDS011;44389;51.578;5.456;2022-11-20T01:07:47;41.13;;;15.82;;
58621;SDS011;44389;51.578;5.456;2022-11-20T01:10:12;40.40;;;14.98;;
58621;SDS011;44389;51.578;5.456;2022-11-20T01:12:37;62.60;;;39.40;;
58621;SDS011;44389;51.578;5.456;2022-11-20T01:15:03;55.97;;;35.30;;
58621;SDS011;44389;51.578;5.456;2022-11-20T01:17:28;52.08;;;34.10;;
58621;SDS011;44389;51.578;5.456;2022-11-20T01:19:55;36.58;;;13.93;;
58621;SDS011;44389;51.578;5.456;2022-11-20T01:22:20;59.22;;;38.05;;
58621;SDS011;44389;51.578;5.456;2022-11-20T01:24:46;54.42;;;35.47;;
58621;SDS011;44389;51.578;5.456;2022-11-20T01:27:11;56.70;;;36.35;;
58621;SDS011;44389;51.578;5.456;2022-11-20T01:29:36;57.80;;;37.28;;
58621;SDS011;44389;51.578;5.456;2022-11-20T01:32:01;64.13;;;38.95;;
58621;SDS011;44389;51.578;5.456;2022-11-20T01:34:27;39.40;;;15.25;;
58621;SDS011;44389;51.578;5.456;2022-11-20T01:36:52;34.00;;;13.82;;
58621;SDS011;44389;51.578;5.456;2022-11-20T01:39:19;61.90;;;37.85;;
58621;SDS011;44389;51.578;5.456;2022-11-20T01:41:47;63.20;;;39.72;;
58621;SDS011;44389;51.578;5.456;2022-11-20T01:44:52;56.50;;;36.83;;
58621;SDS011;44389;51.578;5.456;2022-11-20T01:47:40;56.63;;;36.38;;
58621;SDS011;44389;51.578;5.456;2022-11-20T01:50:17;60.28;;;36.40;;
58621;SDS011;44389;51.578;5.456;2022-11-20T01:52:49;58.00;;;36.92;;
58621;SDS011;44389;51.578;5.456;2022-11-20T01:55:23;62.03;;;38.58;;
58621;SDS011;44389;51.578;5.456;2022-11-20T01:57:52;56.92;;;38.30;;
58621;SDS011;44389;51.578;5.456;2022-11-20T02:00:18;58.55;;;38.30;;
58621;SDS011;44389;51.578;5.456;2022-11-20T02:02:46;64.07;;;40.93;;
58621;SDS011;44389;51.578;5.456;2022-11-20T02:05:23;37.55;;;14.35;;
58621;SDS011;44389;51.578;5.456;2022-11-20T02:07:56;68.18;;;40.55;;
58621;SDS011;44389;51.578;5.456;2022-11-20T02:10:23;60.13;;;38.33;;
58621;SDS011;44389;51.578;5.456;2022-11-20T02:12:50;67.32;;;38.97;;
58621;SDS011;44389;51.578;5.456;2022-11-20T02:15:34;34.38;;;14.40;;
58621;SDS011;44389;51.578;5.456;2022-11-20T02:18:00;37.85;;;14.15;;
58621;SDS011;44389;51.578;5.456;2022-11-20T02:20:25;58.45;;;36.38;;
58621;SDS011;44389;51.578;5.456;2022-11-20T02:22:57;60.17;;;37.58;;
58621;SDS011;44389;51.578;5.456;2022-11-20T02:25:27;43.55;;;15.35;;
58621;SDS011;44389;51.578;5.456;2022-11-20T02:27:55;65.43;;;40.85;;
58621;SDS011;44389;51.578;5.456;2022-11-20T02:30:20;63.63;;;39.45;;
58621;SDS011;44389;51.578;5.456;2022-11-20T02:32:46;36.38;;;13.55;;
58621;SDS011;44389;51.578;5.456;2022-11-20T02:37:42;64.43;;;40.60;;
58621;SDS011;44389;51.578;5.456;2022-11-20T02:40:09;64.80;;;41.87;;
58621;SDS011;44389;51.578;5.456;2022-11-20T02:42:35;38.20;;;13.73;;
58621;SDS011;44389;51.578;5.456;2022-11-20T02:45:01;63.33;;;40.03;;
58621;SDS011;44389;51.578;5.456;2022-11-20T02:47:27;63.30;;;41.28;;
58621;SDS011;44389;51.578;5.456;2022-11-20T02:49:53;36.95;;;15.18;;
58621;SDS011;44389;51.578;5.456;2022-11-20T02:52:18;61.47;;;38.20;;
58621;SDS011;44389;51.578;5.456;2022-11-20T02:54:43;68.70;;;41.90;;
58621;SDS011;44389;51.578;5.456;2022-11-20T02:57:08;41.40;;;15.40;;
58621;SDS011;44389;51.578;5.456;2022-11-20T02:59:34;65.65;;;40.97;;
58621;SDS011;44389;51.578;5.456;2022-11-20T03:01:59;47.30;;;16.40;;
58621;SDS011;44389;51.578;5.456;2022-11-20T03:04:25;66.97;;;42.20;;
58621;SDS011;44389;51.578;5.456;2022-11-20T03:06:50;70.63;;;41.83;;
58621;SDS011;44389;51.578;5.456;2022-11-20T03:09:15;38.75;;;15.82;;
58621;SDS011;44389;51.578;5.456;2022-11-20T03:11:40;68.38;;;41.60;;
58621;SDS011;44389;51.578;5.456;2022-11-20T03:14:06;69.43;;;41.72;;
58621;SDS011;44389;51.578;5.456;2022-11-20T03:16:31;68.90;;;41.97;;
58621;SDS011;44389;51.578;5.456;2022-11-20T03:18:57;68.38;;;42.08;;
58621;SDS011;44389;51.578;5.456;2022-11-20T03:21:23;54.47;;;17.58;;
58621;SDS011;44389;51.578;5.456;2022-11-20T03:23:48;73.10;;;43.47;;
58621;SDS011;44389;51.578;5.456;2022-11-20T03:26:14;75.57;;;44.15;;
58621;SDS011;44389;51.578;5.456;2022-11-20T03:28:45;70.82;;;44.63;;
58621;SDS011;44389;51.578;5.456;2022-11-20T03:31:13;71.60;;;43.78;;
58621;SDS011;44389;51.578;5.456;2022-11-20T03:33:40;74.13;;;42.85;;
58621;SDS011;44389;51.578;5.456;2022-11-20T03:36:08;70.88;;;42.80;;
58621;SDS011;44389;51.578;5.456;2022-11-20T03:38:35;76.22;;;43.70;;
58621;SDS011;44389;51.578;5.456;2022-11-20T03:41:02;71.90;;;44.50;;
58621;SDS011;44389;51.578;5.456;2022-11-20T03:43:30;70.95;;;43.08;;
58621;SDS011;44389;51.578;5.456;2022-11-20T03:45:56;71.53;;;41.72;;
58621;SDS011;44389;51.578;5.456;2022-11-20T03:48:21;65.88;;;40.53;;
58621;SDS011;44389;51.578;5.456;2022-11-20T03:50:47;43.40;;;17.35;;
58621;SDS011;44389;51.578;5.456;2022-11-20T03:53:13;67.50;;;40.83;;
58621;SDS011;44389;51.578;5.456;2022-11-20T03:55:38;68.35;;;42.28;;
58621;SDS011;44389;51.578;5.456;2022-11-20T03:58:04;68.50;;;41.67;;
58621;SDS011;44389;51.578;5.456;2022-11-20T04:00:29;71.18;;;42.20;;
58621;SDS011;44389;51.578;5.456;2022-11-20T04:02:57;71.30;;;43.00;;
58621;SDS011;44389;51.578;5.456;2022-11-20T04:05:23;70.93;;;42.47;;
58621;SDS011;44389;51.578;5.456;2022-11-20T04:07:48;65.55;;;41.15;;
58621;SDS011;44389;51.578;5.456;2022-11-20T04:10:14;48.60;;;15.75;;
58621;SDS011;44389;51.578;5.456;2022-11-20T04:12:39;72.70;;;42.88;;
58621;SDS011;44389;51.578;5.456;2022-11-20T04:15:04;68.63;;;41.67;;
58621;SDS011;44389;51.578;5.456;2022-11-20T04:17:30;44.33;;;17.30;;
58621;SDS011;44389;51.578;5.456;2022-11-20T04:19:55;66.53;;;41.13;;
58621;SDS011;44389;51.578;5.456;2022-11-20T04:22:20;98.25;;;56.13;;
58621;SDS011;44389;51.578;5.456;2022-11-20T04:24:46;46.25;;;16.30;;
58621;SDS011;44389;51.578;5.456;2022-11-20T04:27:11;75.68;;;43.97;;
58621;SDS011;44389;51.578;5.456;2022-11-20T04:29:36;72.10;;;44.55;;
58621;SDS011;44389;51.578;5.456;2022-11-20T04:32:02;78.47;;;47.25;;
58621;SDS011;44389;51.578;5.456;2022-11-20T04:34:27;82.40;;;48.15;;
58621;SDS011;44389;51.578;5.456;2022-11-20T04:36:52;82.78;;;49.28;;
58621;SDS011;44389;51.578;5.456;2022-11-20T04:39:17;81.63;;;48.97;;
58621;SDS011;44389;51.578;5.456;2022-11-20T04:41:43;54.70;;;18.13;;
58621;SDS011;44389;51.578;5.456;2022-11-20T04:44:08;76.65;;;46.30;;
58621;SDS011;44389;51.578;5.456;2022-11-20T04:46:35;78.22;;;47.25;;
58621;SDS011;44389;51.578;5.456;2022-11-20T04:49:01;83.43;;;48.33;;
58621;SDS011;44389;51.578;5.456;2022-11-20T04:51:27;80.53;;;49.05;;
58621;SDS011;44389;51.578;5.456;2022-11-20T04:53:53;48.95;;;18.95;;
58621;SDS011;44389;51.578;5.456;2022-11-20T04:56:18;77.50;;;45.75;;
58621;SDS011;44389;51.578;5.456;2022-11-20T04:58:43;78.90;;;46.38;;
58621;SDS011;44389;51.578;5.456;2022-11-20T05:01:13;87.40;;;50.08;;
58621;SDS011;44389;51.578;5.456;2022-11-20T05:03:40;74.40;;;45.17;;
58621;SDS011;44389;51.578;5.456;2022-11-20T05:06:07;77.93;;;46.72;;
58621;SDS011;44389;51.578;5.456;2022-11-20T05:08:34;73.33;;;43.37;;
58621;SDS011;44389;51.578;5.456;2022-11-20T05:11:02;79.57;;;45.53;;
58621;SDS011;44389;51.578;5.456;2022-11-20T05:13:29;75.47;;;45.40;;
58621;SDS011;44389;51.578;5.456;2022-11-20T05:15:54;80.53;;;44.78;;
58621;SDS011;44389;51.578;5.456;2022-11-20T05:18:19;76.50;;;44.58;;
58621;SDS011;44389;51.578;5.456;2022-11-20T05:20:45;79.63;;;46.30;;
58621;SDS011;44389;51.578;5.456;2022-11-20T05:23:10;77.95;;;45.45;;
58621;SDS011;44389;51.578;5.456;2022-11-20T05:25:35;49.38;;;17.42;;
58621;SDS011;44389;51.578;5.456;2022-11-20T05:28:01;74.07;;;45.28;;
58621;SDS011;44389;51.578;5.456;2022-11-20T05:30:26;85.82;;;49.13;;
58621;SDS011;44389;51.578;5.456;2022-11-20T05:32:51;52.53;;;19.75;;
58621;SDS011;44389;51.578;5.456;2022-11-20T05:35:16;78.03;;;46.53;;
58621;SDS011;44389;51.578;5.456;2022-11-20T05:37:42;78.75;;;47.17;;
58621;SDS011;44389;51.578;5.456;2022-11-20T05:40:07;57.55;;;18.80;;
58621;SDS011;44389;51.578;5.456;2022-11-20T05:42:33;89.15;;;49.40;;
58621;SDS011;44389;51.578;5.456;2022-11-20T05:44:59;50.92;;;18.65;;
58621;SDS011;44389;51.578;5.456;2022-11-20T05:47:26;82.47;;;46.43;;
58621;SDS011;44389;51.578;5.456;2022-11-20T05:49:52;77.55;;;46.33;;
58621;SDS011;44389;51.578;5.456;2022-11-20T05:52:17;88.18;;;48.83;;
58621;SDS011;44389;51.578;5.456;2022-11-20T05:54:43;93.25;;;48.92;;
58621;SDS011;44389;51.578;5.456;2022-11-20T05:57:08;55.20;;;19.15;;
58621;SDS011;44389;51.578;5.456;2022-11-20T05:59:33;83.78;;;48.97;;
58621;SDS011;44389;51.578;5.456;2022-11-20T06:01:59;90.93;;;51.28;;
58621;SDS011;44389;51.578;5.456;2022-11-20T06:04:24;90.68;;;51.60;;
58621;SDS011;44389;51.578;5.456;2022-11-20T06:06:49;87.05;;;50.80;;
58621;SDS011;44389;51.578;5.456;2022-11-20T06:09:15;94.85;;;50.67;;
58621;SDS011;44389;51.578;5.456;2022-11-20T06:11:40;52.45;;;20.38;;
58621;SDS011;44389;51.578;5.456;2022-11-20T06:14:05;88.03;;;49.70;;
58621;SDS011;44389;51.578;5.456;2022-11-20T06:16:31;86.55;;;48.47;;
58621;SDS011;44389;51.578;5.456;2022-11-20T06:18:56;90.07;;;50.80;;
58621;SDS011;44389;51.578;5.456;2022-11-20T06:21:22;91.30;;;51.85;;
58621;SDS011;44389;51.578;5.456;2022-11-20T06:23:48;88.78;;;51.25;;
58621;SDS011;44389;51.578;5.456;2022-11-20T06:26:15;92.57;;;52.33;;
58621;SDS011;44389;51.578;5.456;2022-11-20T06:28:41;97.40;;;52.30;;
58621;SDS011;44389;51.578;5.456;2022-11-20T06:31:06;94.60;;;51.50;;
58621;SDS011;44389;51.578;5.456;2022-11-20T06:33:34;97.15;;;52.92;;
58621;SDS011;44389;51.578;5.456;2022-11-20T06:36:00;93.45;;;52.17;;
58621;SDS011;44389;51.578;5.456;2022-11-20T06:38:26;93.93;;;52.40;;
58621;SDS011;44389;51.578;5.456;2022-11-20T06:40:52;97.93;;;53.83;;
58621;SDS011;44389;51.578;5.456;2022-11-20T06:43:18;96.40;;;53.25;;
58621;SDS011;44389;51.578;5.456;2022-11-20T06:45:43;99.43;;;53.67;;
58621;SDS011;44389;51.578;5.456;2022-11-20T06:48:09;98.47;;;54.33;;
58621;SDS011;44389;51.578;5.456;2022-11-20T06:50:35;96.25;;;54.58;;
58621;SDS011;44389;51.578;5.456;2022-11-20T06:53:02;96.07;;;53.88;;
58621;SDS011;44389;51.578;5.456;2022-11-20T06:55:28;105.13;;;55.03;;
58621;SDS011;44389;51.578;5.456;2022-11-20T06:57:53;102.90;;;55.45;;
58621;SDS011;44389;51.578;5.456;2022-11-20T07:00:19;63.50;;;20.60;;
58621;SDS011;44389;51.578;5.456;2022-11-20T07:02:44;101.63;;;55.30;;
58621;SDS011;44389;51.578;5.456;2022-11-20T07:05:09;101.43;;;54.25;;
58621;SDS011;44389;51.578;5.456;2022-11-20T07:07:35;99.97;;;54.60;;
58621;SDS011;44389;51.578;5.456;2022-11-20T07:10:00;102.82;;;56.42;;
58621;SDS011;44389;51.578;5.456;2022-11-20T07:12:25;111.05;;;58.00;;
58621;SDS011;44389;51.578;5.456;2022-11-20T07:14:50;109.40;;;57.63;;
58621;SDS011;44389;51.578;5.456;2022-11-20T07:17:16;108.25;;;58.47;;
58621;SDS011;44389;51.578;5.456;2022-11-20T07:19:41;130.77;;;73.75;;
58621;SDS011;44389;51.578;5.456;2022-11-20T07:22:07;87.45;;;26.27;;
58621;SDS011;44389;51.578;5.456;2022-11-20T07:24:33;105.60;;;57.35;;
58621;SDS011;44389;51.578;5.456;2022-11-20T07:26:58;109.88;;;56.50;;
58621;SDS011;44389;51.578;5.456;2022-11-20T07:29:23;112.38;;;57.03;;
58621;SDS011;44389;51.578;5.456;2022-11-20T07:31:49;109.85;;;57.78;;
58621;SDS011;44389;51.578;5.456;2022-11-20T07:34:14;108.28;;;56.92;;
58621;SDS011;44389;51.578;5.456;2022-11-20T07:36:39;75.75;;;23.48;;
58621;SDS011;44389;51.578;5.456;2022-11-20T07:39:04;109.93;;;58.88;;
58621;SDS011;44389;51.578;5.456;2022-11-20T07:41:30;122.25;;;69.18;;
58621;SDS011;44389;51.578;5.456;2022-11-20T07:43:56;125.13;;;61.38;;
58621;SDS011;44389;51.578;5.456;2022-11-20T07:46:21;112.13;;;58.13;;
58621;SDS011;44389;51.578;5.456;2022-11-20T07:48:46;114.85;;;58.60;;
58621;SDS011;44389;51.578;5.456;2022-11-20T07:51:11;119.22;;;60.95;;
58621;SDS011;44389;51.578;5.456;2022-11-20T07:53:38;119.15;;;59.45;;
58621;SDS011;44389;51.578;5.456;2022-11-20T07:56:03;119.07;;;60.88;;
58621;SDS011;44389;51.578;5.456;2022-11-20T07:58:29;116.63;;;61.92;;
58621;SDS011;44389;51.578;5.456;2022-11-20T08:00:55;78.25;;;23.33;;
58621;SDS011;44389;51.578;5.456;2022-11-20T08:03:21;116.22;;;59.10;;
58621;SDS011;44389;51.578;5.456;2022-11-20T08:05:46;119.25;;;59.72;;
58621;SDS011;44389;51.578;5.456;2022-11-20T08:08:11;119.65;;;62.33;;
58621;SDS011;44389;51.578;5.456;2022-11-20T08:10:37;125.32;;;62.63;;
58621;SDS011;44389;51.578;5.456;2022-11-20T08:13:02;131.60;;;63.05;;
58621;SDS011;44389;51.578;5.456;2022-11-20T08:15:49;116.65;;;59.60;;
58621;SDS011;44389;51.578;5.456;2022-11-20T08:18:15;127.68;;;62.75;;
58621;SDS011;44389;51.578;5.456;2022-11-20T08:20:42;123.18;;;63.50;;
58621;SDS011;44389;51.578;5.456;2022-11-20T08:23:07;127.88;;;64.05;;
58621;SDS011;44389;51.578;5.456;2022-11-20T08:25:34;130.38;;;66.90;;
58621;SDS011;44389;51.578;5.456;2022-11-20T08:30:27;129.73;;;67.20;;
58621;SDS011;44389;51.578;5.456;2022-11-20T08:32:53;145.25;;;72.65;;
58621;SDS011;44389;51.578;5.456;2022-11-20T08:35:20;134.00;;;66.50;;
58621;SDS011;44389;51.578;5.456;2022-11-20T08:37:46;132.15;;;65.93;;
58621;SDS011;44389;51.578;5.456;2022-11-20T08:40:12;137.60;;;67.60;;
58621;SDS011;44389;51.578;5.456;2022-11-20T08:42:45;137.50;;;68.22;;
58621;SDS011;44389;51.578;5.456;2022-11-20T08:45:13;141.73;;;68.70;;
58621;SDS011;44389;51.578;5.456;2022-11-20T08:47:39;155.15;;;74.30;;
58621;SDS011;44389;51.578;5.456;2022-11-20T08:50:04;142.93;;;72.15;;
58621;SDS011;44389;51.578;5.456;2022-11-20T08:52:30;151.13;;;74.15;;
58621;SDS011;44389;51.578;5.456;2022-11-20T08:54:55;137.60;;;70.05;;
58621;SDS011;44389;51.578;5.456;2022-11-20T08:57:20;150.63;;;70.55;;
58621;SDS011;44389;51.578;5.456;2022-11-20T08:59:45;145.27;;;72.38;;
58621;SDS011;44389;51.578;5.456;2022-11-20T09:02:11;91.93;;;31.38;;
58621;SDS011;44389;51.578;5.456;2022-11-20T09:04:36;147.07;;;72.80;;
58621;SDS011;44389;51.578;5.456;2022-11-20T09:07:02;145.60;;;70.82;;
58621;SDS011;44389;51.578;5.456;2022-11-20T09:09:28;144.77;;;70.40;;
58621;SDS011;44389;51.578;5.456;2022-11-20T09:11:53;137.65;;;67.03;;
58621;SDS011;44389;51.578;5.456;2022-11-20T09:14:18;141.95;;;66.05;;
58621;SDS011;44389;51.578;5.456;2022-11-20T09:16:44;137.43;;;63.88;;
58621;SDS011;44389;51.578;5.456;2022-11-20T09:19:10;138.15;;;66.80;;
58621;SDS011;44389;51.578;5.456;2022-11-20T09:21:36;136.40;;;66.03;;
58621;SDS011;44389;51.578;5.456;2022-11-20T09:24:01;127.65;;;65.10;;
58621;SDS011;44389;51.578;5.456;2022-11-20T09:26:26;134.48;;;66.47;;
58621;SDS011;44389;51.578;5.456;2022-11-20T09:28:51;137.02;;;65.82;;
58621;SDS011;44389;51.578;5.456;2022-11-20T09:31:19;134.75;;;65.18;;
58621;SDS011;44389;51.578;5.456;2022-11-20T09:33:47;134.75;;;64.75;;
58621;SDS011;44389;51.578;5.456;2022-11-20T09:36:13;136.32;;;69.57;;
58621;SDS011;44389;51.578;5.456;2022-11-20T09:38:38;130.85;;;67.45;;
58621;SDS011;44389;51.578;5.456;2022-11-20T09:41:04;137.05;;;69.60;;
58621;SDS011;44389;51.578;5.456;2022-11-20T09:43:46;135.55;;;67.60;;
58621;SDS011;44389;51.578;5.456;2022-11-20T09:46:27;138.35;;;68.80;;
58621;SDS011;44389;51.578;5.456;2022-11-20T09:54:26;139.52;;;67.20;;
58621;SDS011;44389;51.578;5.456;2022-11-20T09:56:58;136.80;;;65.90;;
58621;SDS011;44389;51.578;5.456;2022-11-20T09:59:41;148.10;;;66.55;;
58621;SDS011;44389;51.578;5.456;2022-11-20T10:02:30;149.05;;;68.32;;
58621;SDS011;44389;51.578;5.456;2022-11-20T10:05:08;158.32;;;70.78;;
58621;SDS011;44389;51.578;5.456;2022-11-20T10:10:39;186.07;;;79.03;;
58621;SDS011;44389;51.578;5.456;2022-11-20T10:16:03;169.50;;;68.80;;
58621;SDS011;44389;51.578;5.456;2022-11-20T10:21:55;164.93;;;68.75;;
58621;SDS011;44389;51.578;5.456;2022-11-20T10:30:21;154.10;;;64.55;;
58621;SDS011;44389;51.578;5.456;2022-11-20T10:32:51;162.48;;;65.55;;
58621;SDS011;44389;51.578;5.456;2022-11-20T10:35:20;159.15;;;70.13;;
58621;SDS011;44389;51.578;5.456;2022-11-20T10:37:51;161.05;;;65.93;;
58621;SDS011;44389;51.578;5.456;2022-11-20T10:40:23;185.18;;;70.03;;
58621;SDS011;44389;51.578;5.456;2022-11-20T10:42:54;178.98;;;68.80;;
58621;SDS011;44389;51.578;5.456;2022-11-20T10:50:21;187.57;;;72.63;;
58621;SDS011;44389;51.578;5.456;2022-11-20T10:55:42;191.20;;;73.25;;
58621;SDS011;44389;51.578;5.456;2022-11-20T10:58:35;201.38;;;76.55;;
58621;SDS011;44389;51.578;5.456;2022-11-20T11:01:14;191.63;;;71.85;;
58621;SDS011;44389;51.578;5.456;2022-11-20T11:03:41;194.82;;;74.72;;
58621;SDS011;44389;51.578;5.456;2022-11-20T11:06:12;207.20;;;79.78;;
58621;SDS011;44389;51.578;5.456;2022-11-20T11:08:42;189.23;;;74.95;;
58621;SDS011;44389;51.578;5.456;2022-11-20T11:11:15;203.45;;;75.35;;
58621;SDS011;44389;51.578;5.456;2022-11-20T11:13:46;191.60;;;75.50;;
58621;SDS011;44389;51.578;5.456;2022-11-20T11:16:24;182.00;;;73.68;;
58621;SDS011;44389;51.578;5.456;2022-11-20T11:18:51;183.85;;;73.28;;
58621;SDS011;44389;51.578;5.456;2022-11-20T11:21:28;186.90;;;75.18;;
58621;SDS011;44389;51.578;5.456;2022-11-20T11:24:00;198.43;;;77.32;;
58621;SDS011;44389;51.578;5.456;2022-11-20T11:26:27;198.50;;;78.18;;
58621;SDS011;44389;51.578;5.456;2022-11-20T11:28:56;185.55;;;74.85;;
58621;SDS011;44389;51.578;5.456;2022-11-20T11:31:24;186.02;;;79.18;;
58621;SDS011;44389;51.578;5.456;2022-11-20T11:34:15;196.20;;;80.63;;
58621;SDS011;44389;51.578;5.456;2022-11-20T11:36:40;200.65;;;80.97;;
58621;SDS011;44389;51.578;5.456;2022-11-20T11:39:08;201.48;;;83.63;;
58621;SDS011;44389;51.578;5.456;2022-11-20T11:41:39;203.93;;;80.05;;
58621;SDS011;44389;51.578;5.456;2022-11-20T11:47:00;204.32;;;83.45;;
58621;SDS011;44389;51.578;5.456;2022-11-20T11:54:44;217.82;;;89.03;;
58621;SDS011;44389;51.578;5.456;2022-11-20T11:57:16;220.45;;;90.32;;
58621;SDS011;44389;51.578;5.456;2022-11-20T12:04:54;223.25;;;88.75;;
58621;SDS011;44389;51.578;5.456;2022-11-20T12:13:15;219.43;;;88.85;;
58621;SDS011;44389;51.578;5.456;2022-11-20T12:15:46;229.43;;;90.75;;
58621;SDS011;44389;51.578;5.456;2022-11-20T12:18:15;234.77;;;93.20;;
58621;SDS011;44389;51.578;5.456;2022-11-20T12:20:45;219.60;;;90.07;;
58621;SDS011;44389;51.578;5.456;2022-11-20T12:23:30;214.75;;;87.65;;
58621;SDS011;44389;51.578;5.456;2022-11-20T12:26:00;220.80;;;88.93;;
58621;SDS011;44389;51.578;5.456;2022-11-20T12:31:25;215.48;;;88.25;;
58621;SDS011;44389;51.578;5.456;2022-11-20T12:33:56;209.68;;;89.07;;
58621;SDS011;44389;51.578;5.456;2022-11-20T12:39:42;215.10;;;90.25;;
58621;SDS011;44389;51.578;5.456;2022-11-20T12:45:07;222.15;;;91.45;;
58621;SDS011;44389;51.578;5.456;2022-11-20T12:50:37;222.00;;;99.15;;
58621;SDS011;44389;51.578;5.456;2022-11-20T12:53:25;213.73;;;89.03;;
58621;SDS011;44389;51.578;5.456;2022-11-20T12:56:03;228.02;;;95.55;;
58621;SDS011;44389;51.578;5.456;2022-11-20T12:58:53;225.35;;;91.07;;
58621;SDS011;44389;51.578;5.456;2022-11-20T13:01:40;212.65;;;88.22;;
58621;SDS011;44389;51.578;5.456;2022-11-20T13:06:46;211.13;;;88.10;;
58621;SDS011;44389;51.578;5.456;2022-11-20T13:09:12;207.57;;;85.28;;
58621;SDS011;44389;51.578;5.456;2022-11-20T13:11:42;199.82;;;84.43;;
58621;SDS011;44389;51.578;5.456;2022-11-20T13:14:24;207.07;;;87.35;;
58621;SDS011;44389;51.578;5.456;2022-11-20T13:17:13;210.02;;;86.65;;
58621;SDS011;44389;51.578;5.456;2022-11-20T13:20:01;206.98;;;86.00;;
58621;SDS011;44389;51.578;5.456;2022-11-20T13:22:42;206.17;;;87.63;;
58621;SDS011;44389;51.578;5.456;2022-11-20T13:27:59;208.23;;;83.38;;
58621;SDS011;44389;51.578;5.456;2022-11-20T13:30:27;214.18;;;85.82;;
58621;SDS011;44389;51.578;5.456;2022-11-20T13:35:55;199.43;;;82.90;;
58621;SDS011;44389;51.578;5.456;2022-11-20T13:38:23;201.60;;;85.22;;
58621;SDS011;44389;51.578;5.456;2022-11-20T13:43:44;208.38;;;84.30;;
58621;SDS011;44389;51.578;5.456;2022-11-20T13:56:59;213.70;;;83.38;;
58621;SDS011;44389;51.578;5.456;2022-11-20T14:02:18;214.10;;;87.30;;
58621;SDS011;44389;51.578;5.456;2022-11-20T14:04:47;202.85;;;80.90;;
58621;SDS011;44389;51.578;5.456;2022-11-20T14:07:16;215.18;;;84.93;;
58621;SDS011;44389;51.578;5.456;2022-11-20T14:09:51;219.27;;;91.20;;
58621;SDS011;44389;51.578;5.456;2022-11-20T14:12:22;207.43;;;85.78;;
58621;SDS011;44389;51.578;5.456;2022-11-20T14:14:52;211.55;;;86.95;;
58621;SDS011;44389;51.578;5.456;2022-11-20T14:17:23;201.70;;;83.45;;
58621;SDS011;44389;51.578;5.456;2022-11-20T14:19:55;210.50;;;84.45;;
58621;SDS011;44389;51.578;5.456;2022-11-20T14:22:26;206.80;;;83.93;;
58621;SDS011;44389;51.578;5.456;2022-11-20T14:27:37;211.93;;;85.18;;
58621;SDS011;44389;51.578;5.456;2022-11-20T14:30:04;221.15;;;84.78;;
58621;SDS011;44389;51.578;5.456;2022-11-20T14:32:37;228.93;;;88.30;;
58621;SDS011;44389;51.578;5.456;2022-11-20T14:35:06;225.77;;;86.57;;
58621;SDS011;44389;51.578;5.456;2022-11-20T14:37:38;230.70;;;86.60;;
58621;SDS011;44389;51.578;5.456;2022-11-20T14:40:21;250.77;;;95.10;;
58621;SDS011;44389;51.578;5.456;2022-11-20T14:42:55;236.25;;;92.40;;
58621;SDS011;44389;51.578;5.456;2022-11-20T14:45:21;242.13;;;97.55;;
58621;SDS011;44389;51.578;5.456;2022-11-20T14:47:48;254.73;;;95.78;;
58621;SDS011;44389;51.578;5.456;2022-11-20T14:50:22;250.07;;;94.70;;
58621;SDS011;44389;51.578;5.456;2022-11-20T14:52:54;277.10;;;101.90;;
58621;SDS011;44389;51.578;5.456;2022-11-20T14:57:56;273.92;;;99.35;;
58621;SDS011;44389;51.578;5.456;2022-11-20T15:00:23;293.17;;;101.10;;
58621;SDS011;44389;51.578;5.456;2022-11-20T15:02:49;279.98;;;99.18;;
58621;SDS011;44389;51.578;5.456;2022-11-20T15:05:16;290.33;;;99.10;;
58621;SDS011;44389;51.578;5.456;2022-11-20T15:07:44;290.30;;;102.15;;
58621;SDS011;44389;51.578;5.456;2022-11-20T15:13:03;320.15;;;107.05;;
58621;SDS011;44389;51.578;5.456;2022-11-20T15:15:32;300.23;;;108.80;;
58621;SDS011;44389;51.578;5.456;2022-11-20T15:18:01;295.55;;;101.03;;
58621;SDS011;44389;51.578;5.456;2022-11-20T15:20:28;283.40;;;99.57;;
58621;SDS011;44389;51.578;5.456;2022-11-20T15:22:56;294.45;;;99.13;;
58621;SDS011;44389;51.578;5.456;2022-11-20T15:25:22;300.88;;;102.18;;
58621;SDS011;44389;51.578;5.456;2022-11-20T15:27:49;307.10;;;104.63;;
58621;SDS011;44389;51.578;5.456;2022-11-20T15:30:19;304.65;;;107.43;;
58621;SDS011;44389;51.578;5.456;2022-11-20T15:32:45;318.40;;;108.10;;
58621;SDS011;44389;51.578;5.456;2022-11-20T15:35:12;305.95;;;103.93;;
58621;SDS011;44389;51.578;5.456;2022-11-20T15:37:38;318.55;;;104.75;;
58621;SDS011;44389;51.578;5.456;2022-11-20T15:40:04;314.67;;;105.18;;
58621;SDS011;44389;51.578;5.456;2022-11-20T15:42:31;301.87;;;107.00;;
58621;SDS011;44389;51.578;5.456;2022-11-20T15:44:57;304.30;;;103.72;;
58621;SDS011;44389;51.578;5.456;2022-11-20T15:47:24;299.70;;;103.50;;
58621;SDS011;44389;51.578;5.456;2022-11-20T15:49:52;305.98;;;102.35;;
58621;SDS011;44389;51.578;5.456;2022-11-20T15:52:18;301.58;;;100.63;;
58621;SDS011;44389;51.578;5.456;2022-11-20T15:54:43;312.80;;;98.63;;
58621;SDS011;44389;51.578;5.456;2022-11-20T15:57:08;302.30;;;98.65;;
58621;SDS011;44389;51.578;5.456;2022-11-20T15:59:34;304.75;;;96.95;;